sensor_id;sensor_type;location;lat;lon;timestamp;P1;durP1;ratioP1;P2;durP2;ratioP2
32786;SDS011;19139;49.372;8.580;2022-08-19T00:02:05;14.03;;;12.53;;
32786;SDS011;19139;49.372;8.580;2022-08-19T00:04:34;14.87;;;13.47;;
32786;SDS011;19139;49.372;8.580;2022-08-19T00:07:07;14.90;;;13.60;;
32786;SDS011;19139;49.372;8.580;2022-08-19T00:09:33;15.47;;;14.07;;
32786;SDS011;19139;49.372;8.580;2022-08-19T00:12:00;15.00;;;13.60;;
32786;SDS011;19139;49.372;8.580;2022-08-19T00:14:27;15.83;;;14.43;;
32786;SDS011;19139;49.372;8.580;2022-08-19T00:16:57;14.70;;;13.20;;
32786;SDS011;19139;49.372;8.580;2022-08-19T00:19:24;15.40;;;13.83;;
32786;SDS011;19139;49.372;8.580;2022-08-19T00:21:56;14.77;;;13.30;;
32786;SDS011;19139;49.372;8.580;2022-08-19T00:24:22;15.37;;;14.07;;
32786;SDS011;19139;49.372;8.580;2022-08-19T00:26:55;14.57;;;13.27;;
32786;SDS011;19139;49.372;8.580;2022-08-19T00:29:43;15.33;;;13.93;;
32786;SDS011;19139;49.372;8.580;2022-08-19T00:32:10;16.13;;;14.63;;
32786;SDS011;19139;49.372;8.580;2022-08-19T00:34:38;14.77;;;13.40;;
32786;SDS011;19139;49.372;8.580;2022-08-19T00:37:05;14.87;;;13.57;;
32786;SDS011;19139;49.372;8.580;2022-08-19T00:39:38;15.43;;;14.03;;
32786;SDS011;19139;49.372;8.580;2022-08-19T00:42:04;15.33;;;13.83;;
32786;SDS011;19139;49.372;8.580;2022-08-19T00:44:37;16.03;;;14.53;;
32786;SDS011;19139;49.372;8.580;2022-08-19T00:47:04;15.40;;;14.00;;
32786;SDS011;19139;49.372;8.580;2022-08-19T00:49:37;14.80;;;13.40;;
32786;SDS011;19139;49.372;8.580;2022-08-19T00:52:08;15.30;;;13.90;;
32786;SDS011;19139;49.372;8.580;2022-08-19T00:54:46;16.50;;;15.00;;
32786;SDS011;19139;49.372;8.580;2022-08-19T00:57:18;15.10;;;13.73;;
32786;SDS011;19139;49.372;8.580;2022-08-19T00:59:55;16.47;;;14.97;;
32786;SDS011;19139;49.372;8.580;2022-08-19T01:02:28;15.03;;;13.53;;
32786;SDS011;19139;49.372;8.580;2022-08-19T01:04:55;17.80;;;14.30;;
32786;SDS011;19139;49.372;8.580;2022-08-19T01:07:22;15.43;;;13.93;;
32786;SDS011;19139;49.372;8.580;2022-08-19T01:09:49;16.97;;;15.13;;
32786;SDS011;19139;49.372;8.580;2022-08-19T01:12:17;18.23;;;15.13;;
32786;SDS011;19139;49.372;8.580;2022-08-19T01:14:45;17.00;;;15.33;;
32786;SDS011;19139;49.372;8.580;2022-08-19T01:17:13;16.53;;;14.33;;
32786;SDS011;19139;49.372;8.580;2022-08-19T01:19:42;17.23;;;14.90;;
32786;SDS011;19139;49.372;8.580;2022-08-19T01:22:18;16.63;;;14.80;;
32786;SDS011;19139;49.372;8.580;2022-08-19T01:24:58;17.87;;;15.23;;
32786;SDS011;19139;49.372;8.580;2022-08-19T01:27:37;16.63;;;15.03;;
32786;SDS011;19139;49.372;8.580;2022-08-19T01:30:11;16.80;;;14.10;;
32786;SDS011;19139;49.372;8.580;2022-08-19T01:32:45;16.13;;;14.63;;
32786;SDS011;19139;49.372;8.580;2022-08-19T01:35:12;15.90;;;14.33;;
32786;SDS011;19139;49.372;8.580;2022-08-19T01:37:54;16.20;;;14.60;;
32786;SDS011;19139;49.372;8.580;2022-08-19T01:40:24;18.40;;;15.30;;
32786;SDS011;19139;49.372;8.580;2022-08-19T01:42:53;15.53;;;14.13;;
32786;SDS011;19139;49.372;8.580;2022-08-19T01:45:25;15.53;;;14.03;;
32786;SDS011;19139;49.372;8.580;2022-08-19T01:47:54;15.70;;;14.30;;
32786;SDS011;19139;49.372;8.580;2022-08-19T01:50:27;16.00;;;14.47;;
32786;SDS011;19139;49.372;8.580;2022-08-19T01:52:55;14.00;;;12.50;;
32786;SDS011;19139;49.372;8.580;2022-08-19T01:55:32;15.80;;;14.37;;
32786;SDS011;19139;49.372;8.580;2022-08-19T01:58:06;14.77;;;13.27;;
32786;SDS011;19139;49.372;8.580;2022-08-19T02:00:42;16.90;;;15.30;;
32786;SDS011;19139;49.372;8.580;2022-08-19T02:03:14;17.47;;;15.53;;
32786;SDS011;19139;49.372;8.580;2022-08-19T02:05:46;15.87;;;14.20;;
32786;SDS011;19139;49.372;8.580;2022-08-19T02:08:13;18.13;;;15.00;;
32786;SDS011;19139;49.372;8.580;2022-08-19T02:10:41;17.50;;;14.90;;
32786;SDS011;19139;49.372;8.580;2022-08-19T02:13:10;20.27;;;15.90;;
32786;SDS011;19139;49.372;8.580;2022-08-19T02:15:38;18.03;;;14.77;;
32786;SDS011;19139;49.372;8.580;2022-08-19T02:18:05;17.53;;;15.83;;
32786;SDS011;19139;49.372;8.580;2022-08-19T02:20:34;17.73;;;15.57;;
32786;SDS011;19139;49.372;8.580;2022-08-19T02:23:02;15.70;;;14.20;;
32786;SDS011;19139;49.372;8.580;2022-08-19T02:25:28;15.80;;;14.40;;
32786;SDS011;19139;49.372;8.580;2022-08-19T02:27:55;16.23;;;14.67;;
32786;SDS011;19139;49.372;8.580;2022-08-19T02:30:22;16.90;;;15.30;;
32786;SDS011;19139;49.372;8.580;2022-08-19T02:32:51;16.90;;;15.20;;
32786;SDS011;19139;49.372;8.580;2022-08-19T02:35:18;17.60;;;15.97;;
32786;SDS011;19139;49.372;8.580;2022-08-19T02:37:45;16.27;;;14.87;;
32786;SDS011;19139;49.372;8.580;2022-08-19T02:40:30;16.60;;;15.10;;
32786;SDS011;19139;49.372;8.580;2022-08-19T02:43:02;15.47;;;14.00;;
32786;SDS011;19139;49.372;8.580;2022-08-19T02:45:33;16.47;;;14.87;;
32786;SDS011;19139;49.372;8.580;2022-08-19T02:48:05;17.03;;;15.40;;
32786;SDS011;19139;49.372;8.580;2022-08-19T02:50:46;15.87;;;14.47;;
32786;SDS011;19139;49.372;8.580;2022-08-19T02:53:19;16.37;;;14.97;;
32786;SDS011;19139;49.372;8.580;2022-08-19T02:55:46;15.87;;;14.37;;
32786;SDS011;19139;49.372;8.580;2022-08-19T02:58:13;15.30;;;14.00;;
32786;SDS011;19139;49.372;8.580;2022-08-19T03:00:50;15.90;;;14.43;;
32786;SDS011;19139;49.372;8.580;2022-08-19T03:03:19;17.37;;;15.77;;
32786;SDS011;19139;49.372;8.580;2022-08-19T03:05:46;16.73;;;15.10;;
32786;SDS011;19139;49.372;8.580;2022-08-19T03:08:23;16.90;;;15.33;;
32786;SDS011;19139;49.372;8.580;2022-08-19T03:10:50;16.33;;;14.93;;
32786;SDS011;19139;49.372;8.580;2022-08-19T03:13:18;17.10;;;15.60;;
32786;SDS011;19139;49.372;8.580;2022-08-19T03:15:45;16.73;;;15.30;;
32786;SDS011;19139;49.372;8.580;2022-08-19T03:18:13;16.30;;;14.90;;
32786;SDS011;19139;49.372;8.580;2022-08-19T03:20:46;17.70;;;16.17;;
32786;SDS011;19139;49.372;8.580;2022-08-19T03:23:15;15.57;;;14.27;;
32786;SDS011;19139;49.372;8.580;2022-08-19T03:25:44;16.37;;;15.00;;
32786;SDS011;19139;49.372;8.580;2022-08-19T03:28:23;16.57;;;15.17;;
32786;SDS011;19139;49.372;8.580;2022-08-19T03:30:57;15.97;;;14.57;;
32786;SDS011;19139;49.372;8.580;2022-08-19T03:33:49;17.40;;;15.90;;
32786;SDS011;19139;49.372;8.580;2022-08-19T03:36:18;17.10;;;15.67;;
32786;SDS011;19139;49.372;8.580;2022-08-19T03:38:50;16.97;;;15.47;;
32786;SDS011;19139;49.372;8.580;2022-08-19T03:41:26;17.03;;;15.23;;
32786;SDS011;19139;49.372;8.580;2022-08-19T03:44:10;16.27;;;14.87;;
32786;SDS011;19139;49.372;8.580;2022-08-19T03:46:43;17.17;;;15.57;;
32786;SDS011;19139;49.372;8.580;2022-08-19T03:49:11;17.63;;;15.93;;
32786;SDS011;19139;49.372;8.580;2022-08-19T03:51:40;15.90;;;14.50;;
32786;SDS011;19139;49.372;8.580;2022-08-19T03:54:09;17.80;;;16.13;;
32786;SDS011;19139;49.372;8.580;2022-08-19T03:56:44;16.70;;;15.30;;
32786;SDS011;19139;49.372;8.580;2022-08-19T03:59:13;16.67;;;15.30;;
32786;SDS011;19139;49.372;8.580;2022-08-19T04:01:43;17.67;;;16.27;;
32786;SDS011;19139;49.372;8.580;2022-08-19T04:04:10;16.53;;;15.23;;
32786;SDS011;19139;49.372;8.580;2022-08-19T04:06:42;16.27;;;14.93;;
32786;SDS011;19139;49.372;8.580;2022-08-19T04:09:10;16.33;;;15.03;;
32786;SDS011;19139;49.372;8.580;2022-08-19T04:11:43;17.47;;;15.97;;
32786;SDS011;19139;49.372;8.580;2022-08-19T04:14:16;16.33;;;15.03;;
32786;SDS011;19139;49.372;8.580;2022-08-19T04:16:45;16.00;;;14.70;;
32786;SDS011;19139;49.372;8.580;2022-08-19T04:19:14;17.17;;;15.67;;
32786;SDS011;19139;49.372;8.580;2022-08-19T04:21:47;15.80;;;14.47;;
32786;SDS011;19139;49.372;8.580;2022-08-19T04:24:20;16.70;;;15.27;;
32786;SDS011;19139;49.372;8.580;2022-08-19T04:26:53;17.47;;;15.97;;
32786;SDS011;19139;49.372;8.580;2022-08-19T04:29:24;16.40;;;15.00;;
32786;SDS011;19139;49.372;8.580;2022-08-19T04:31:58;16.07;;;14.67;;
32786;SDS011;19139;49.372;8.580;2022-08-19T04:34:30;15.80;;;14.40;;
32786;SDS011;19139;49.372;8.580;2022-08-19T04:37:01;17.17;;;15.67;;
32786;SDS011;19139;49.372;8.580;2022-08-19T04:39:38;16.17;;;14.67;;
32786;SDS011;19139;49.372;8.580;2022-08-19T04:42:27;15.83;;;14.33;;
32786;SDS011;19139;49.372;8.580;2022-08-19T04:45:12;15.13;;;13.77;;
32786;SDS011;19139;49.372;8.580;2022-08-19T04:47:42;16.63;;;15.23;;
32786;SDS011;19139;49.372;8.580;2022-08-19T04:50:22;16.60;;;15.17;;
32786;SDS011;19139;49.372;8.580;2022-08-19T04:52:50;16.47;;;14.97;;
32786;SDS011;19139;49.372;8.580;2022-08-19T04:55:17;17.60;;;16.10;;
32786;SDS011;19139;49.372;8.580;2022-08-19T04:57:44;17.57;;;16.13;;
32786;SDS011;19139;49.372;8.580;2022-08-19T05:00:10;16.13;;;14.83;;
32786;SDS011;19139;49.372;8.580;2022-08-19T05:02:38;17.03;;;15.63;;
32786;SDS011;19139;49.372;8.580;2022-08-19T05:05:09;16.30;;;15.00;;
32786;SDS011;19139;49.372;8.580;2022-08-19T05:07:41;16.17;;;14.87;;
32786;SDS011;19139;49.372;8.580;2022-08-19T05:10:13;16.13;;;14.73;;
32786;SDS011;19139;49.372;8.580;2022-08-19T05:12:39;16.57;;;15.17;;
32786;SDS011;19139;49.372;8.580;2022-08-19T05:15:06;17.17;;;15.57;;
32786;SDS011;19139;49.372;8.580;2022-08-19T05:17:39;16.67;;;15.37;;
32786;SDS011;19139;49.372;8.580;2022-08-19T05:20:25;16.80;;;15.40;;
32786;SDS011;19139;49.372;8.580;2022-08-19T05:23:11;16.60;;;15.20;;
32786;SDS011;19139;49.372;8.580;2022-08-19T05:25:47;16.87;;;15.23;;
32786;SDS011;19139;49.372;8.580;2022-08-19T05:28:13;17.03;;;15.63;;
32786;SDS011;19139;49.372;8.580;2022-08-19T05:30:40;17.10;;;15.67;;
32786;SDS011;19139;49.372;8.580;2022-08-19T05:33:12;15.83;;;14.53;;
32786;SDS011;19139;49.372;8.580;2022-08-19T05:35:39;16.70;;;15.30;;
32786;SDS011;19139;49.372;8.580;2022-08-19T05:38:11;17.43;;;16.03;;
32786;SDS011;19139;49.372;8.580;2022-08-19T05:40:43;17.43;;;15.83;;
32786;SDS011;19139;49.372;8.580;2022-08-19T05:43:17;17.57;;;16.07;;
32786;SDS011;19139;49.372;8.580;2022-08-19T05:45:49;18.23;;;16.73;;
32786;SDS011;19139;49.372;8.580;2022-08-19T05:48:21;16.03;;;14.73;;
32786;SDS011;19139;49.372;8.580;2022-08-19T05:50:53;17.80;;;16.40;;
32786;SDS011;19139;49.372;8.580;2022-08-19T05:53:24;17.43;;;15.93;;
32786;SDS011;19139;49.372;8.580;2022-08-19T05:55:51;18.47;;;16.87;;
32786;SDS011;19139;49.372;8.580;2022-08-19T05:58:22;15.70;;;14.43;;
32786;SDS011;19139;49.372;8.580;2022-08-19T06:00:53;17.10;;;15.70;;
32786;SDS011;19139;49.372;8.580;2022-08-19T06:03:25;16.73;;;15.33;;
32786;SDS011;19139;49.372;8.580;2022-08-19T06:05:51;17.93;;;16.23;;
32786;SDS011;19139;49.372;8.580;2022-08-19T06:08:19;17.23;;;15.73;;
32786;SDS011;19139;49.372;8.580;2022-08-19T06:11:11;17.17;;;15.70;;
32786;SDS011;19139;49.372;8.580;2022-08-19T06:13:43;17.67;;;16.17;;
32786;SDS011;19139;49.372;8.580;2022-08-19T06:16:21;15.47;;;14.23;;
32786;SDS011;19139;49.372;8.580;2022-08-19T06:18:54;17.03;;;15.53;;
32786;SDS011;19139;49.372;8.580;2022-08-19T06:21:28;15.53;;;14.23;;
32786;SDS011;19139;49.372;8.580;2022-08-19T06:23:56;16.57;;;15.07;;
32786;SDS011;19139;49.372;8.580;2022-08-19T06:26:24;16.20;;;14.90;;
32786;SDS011;19139;49.372;8.580;2022-08-19T06:28:52;16.37;;;14.97;;
32786;SDS011;19139;49.372;8.580;2022-08-19T06:31:20;14.93;;;13.63;;
32786;SDS011;19139;49.372;8.580;2022-08-19T06:33:48;16.70;;;15.30;;
32786;SDS011;19139;49.372;8.580;2022-08-19T06:36:23;16.97;;;15.57;;
32786;SDS011;19139;49.372;8.580;2022-08-19T06:38:57;16.57;;;15.13;;
32786;SDS011;19139;49.372;8.580;2022-08-19T06:41:25;15.90;;;14.50;;
32786;SDS011;19139;49.372;8.580;2022-08-19T06:43:53;15.67;;;14.17;;
32786;SDS011;19139;49.372;8.580;2022-08-19T06:46:22;17.37;;;15.80;;
32786;SDS011;19139;49.372;8.580;2022-08-19T06:48:54;16.47;;;15.07;;
32786;SDS011;19139;49.372;8.580;2022-08-19T06:51:21;15.17;;;13.87;;
32786;SDS011;19139;49.372;8.580;2022-08-19T06:53:54;16.30;;;14.90;;
32786;SDS011;19139;49.372;8.580;2022-08-19T06:56:26;16.13;;;14.83;;
32786;SDS011;19139;49.372;8.580;2022-08-19T06:59:00;15.50;;;14.20;;
32786;SDS011;19139;49.372;8.580;2022-08-19T07:01:28;15.47;;;14.17;;
32786;SDS011;19139;49.372;8.580;2022-08-19T07:03:55;15.43;;;14.13;;
32786;SDS011;19139;49.372;8.580;2022-08-19T07:06:23;15.93;;;14.63;;
32786;SDS011;19139;49.372;8.580;2022-08-19T07:09:10;14.87;;;13.67;;
32786;SDS011;19139;49.372;8.580;2022-08-19T07:11:44;15.87;;;14.47;;
32786;SDS011;19139;49.372;8.580;2022-08-19T07:14:13;16.70;;;15.30;;
32786;SDS011;19139;49.372;8.580;2022-08-19T07:16:45;16.17;;;14.87;;
32786;SDS011;19139;49.372;8.580;2022-08-19T07:19:16;15.47;;;14.27;;
32786;SDS011;19139;49.372;8.580;2022-08-19T07:21:45;15.07;;;13.70;;
32786;SDS011;19139;49.372;8.580;2022-08-19T07:24:18;15.33;;;14.03;;
32786;SDS011;19139;49.372;8.580;2022-08-19T07:26:52;14.33;;;13.03;;
32786;SDS011;19139;49.372;8.580;2022-08-19T07:29:25;14.07;;;12.67;;
32786;SDS011;19139;49.372;8.580;2022-08-19T07:31:54;14.53;;;13.33;;
32786;SDS011;19139;49.372;8.580;2022-08-19T07:34:26;14.17;;;12.97;;
32786;SDS011;19139;49.372;8.580;2022-08-19T07:36:54;15.50;;;13.97;;
32786;SDS011;19139;49.372;8.580;2022-08-19T07:39:26;13.03;;;11.93;;
32786;SDS011;19139;49.372;8.580;2022-08-19T07:41:55;14.40;;;13.30;;
32786;SDS011;19139;49.372;8.580;2022-08-19T07:44:23;14.17;;;13.03;;
32786;SDS011;19139;49.372;8.580;2022-08-19T07:46:52;13.03;;;11.93;;
32786;SDS011;19139;49.372;8.580;2022-08-19T07:49:21;12.50;;;11.50;;
32786;SDS011;19139;49.372;8.580;2022-08-19T07:51:50;13.07;;;11.87;;
32786;SDS011;19139;49.372;8.580;2022-08-19T07:54:20;13.33;;;12.13;;
32786;SDS011;19139;49.372;8.580;2022-08-19T07:56:48;12.40;;;11.30;;
32786;SDS011;19139;49.372;8.580;2022-08-19T07:59:18;12.20;;;10.90;;
32786;SDS011;19139;49.372;8.580;2022-08-19T08:01:46;11.83;;;10.93;;
32786;SDS011;19139;49.372;8.580;2022-08-19T08:04:14;12.03;;;10.87;;
32786;SDS011;19139;49.372;8.580;2022-08-19T08:06:59;12.40;;;11.27;;
32786;SDS011;19139;49.372;8.580;2022-08-19T08:09:45;10.50;;;9.60;;
32786;SDS011;19139;49.372;8.580;2022-08-19T08:12:17;11.53;;;10.43;;
32786;SDS011;19139;49.372;8.580;2022-08-19T08:15:01;11.53;;;10.47;;
32786;SDS011;19139;49.372;8.580;2022-08-19T08:17:33;11.33;;;10.43;;
32786;SDS011;19139;49.372;8.580;2022-08-19T08:20:15;11.27;;;10.23;;
32786;SDS011;19139;49.372;8.580;2022-08-19T08:22:45;10.60;;;9.60;;
32786;SDS011;19139;49.372;8.580;2022-08-19T08:25:31;10.17;;;9.37;;
32786;SDS011;19139;49.372;8.580;2022-08-19T08:28:00;9.53;;;8.73;;
32786;SDS011;19139;49.372;8.580;2022-08-19T08:30:28;10.00;;;9.07;;
32786;SDS011;19139;49.372;8.580;2022-08-19T08:32:59;8.97;;;8.17;;
32786;SDS011;19139;49.372;8.580;2022-08-19T08:35:27;10.40;;;9.50;;
32786;SDS011;19139;49.372;8.580;2022-08-19T08:37:59;9.40;;;8.60;;
32786;SDS011;19139;49.372;8.580;2022-08-19T08:43:32;9.27;;;8.47;;
32786;SDS011;19139;49.372;8.580;2022-08-19T08:46:02;10.17;;;9.27;;
32786;SDS011;19139;49.372;8.580;2022-08-19T08:48:41;9.93;;;9.13;;
32786;SDS011;19139;49.372;8.580;2022-08-19T08:51:26;9.33;;;8.63;;
32786;SDS011;19139;49.372;8.580;2022-08-19T08:54:19;8.93;;;8.03;;
32786;SDS011;19139;49.372;8.580;2022-08-19T08:57:02;9.40;;;8.60;;
32786;SDS011;19139;49.372;8.580;2022-08-19T08:59:39;8.53;;;7.83;;
32786;SDS011;19139;49.372;8.580;2022-08-19T09:02:12;9.33;;;8.60;;
32786;SDS011;19139;49.372;8.580;2022-08-19T09:04:39;8.70;;;8.00;;
32786;SDS011;19139;49.372;8.580;2022-08-19T09:07:38;9.13;;;8.33;;
32786;SDS011;19139;49.372;8.580;2022-08-19T09:10:33;9.27;;;8.47;;
32786;SDS011;19139;49.372;8.580;2022-08-19T09:16:14;8.23;;;7.53;;
32786;SDS011;19139;49.372;8.580;2022-08-19T09:18:50;8.97;;;8.27;;
32786;SDS011;19139;49.372;8.580;2022-08-19T09:21:20;8.67;;;7.97;;
32786;SDS011;19139;49.372;8.580;2022-08-19T09:23:58;9.07;;;8.37;;
32786;SDS011;19139;49.372;8.580;2022-08-19T09:26:25;8.13;;;7.43;;
32786;SDS011;19139;49.372;8.580;2022-08-19T09:29:13;8.63;;;7.90;;
32786;SDS011;19139;49.372;8.580;2022-08-19T09:31:39;7.47;;;6.87;;
32786;SDS011;19139;49.372;8.580;2022-08-19T09:34:06;8.20;;;7.40;;
32786;SDS011;19139;49.372;8.580;2022-08-19T09:36:46;7.70;;;7.03;;
32786;SDS011;19139;49.372;8.580;2022-08-19T09:39:16;8.37;;;7.67;;
32786;SDS011;19139;49.372;8.580;2022-08-19T09:41:43;6.83;;;6.23;;
32786;SDS011;19139;49.372;8.580;2022-08-19T09:44:12;8.67;;;7.87;;
32786;SDS011;19139;49.372;8.580;2022-08-19T09:46:39;8.13;;;7.43;;
32786;SDS011;19139;49.372;8.580;2022-08-19T09:49:11;8.23;;;7.53;;
32786;SDS011;19139;49.372;8.580;2022-08-19T09:51:42;7.67;;;7.07;;
32786;SDS011;19139;49.372;8.580;2022-08-19T09:54:16;8.03;;;7.33;;
32786;SDS011;19139;49.372;8.580;2022-08-19T09:56:48;7.87;;;7.17;;
32786;SDS011;19139;49.372;8.580;2022-08-19T09:59:20;7.27;;;6.57;;
32786;SDS011;19139;49.372;8.580;2022-08-19T10:01:52;8.03;;;7.37;;
32786;SDS011;19139;49.372;8.580;2022-08-19T10:04:19;7.83;;;7.13;;
32786;SDS011;19139;49.372;8.580;2022-08-19T10:06:48;8.27;;;7.47;;
32786;SDS011;19139;49.372;8.580;2022-08-19T10:09:19;6.87;;;6.17;;
32786;SDS011;19139;49.372;8.580;2022-08-19T10:11:59;7.73;;;7.07;;
32786;SDS011;19139;49.372;8.580;2022-08-19T10:14:28;7.13;;;6.63;;
32786;SDS011;19139;49.372;8.580;2022-08-19T10:16:54;7.53;;;6.93;;
32786;SDS011;19139;49.372;8.580;2022-08-19T10:19:24;7.27;;;6.63;;
32786;SDS011;19139;49.372;8.580;2022-08-19T10:21:52;7.43;;;6.83;;
32786;SDS011;19139;49.372;8.580;2022-08-19T10:24:25;8.50;;;7.80;;
32786;SDS011;19139;49.372;8.580;2022-08-19T10:26:58;7.37;;;6.77;;
32786;SDS011;19139;49.372;8.580;2022-08-19T10:29:31;7.73;;;6.97;;
32786;SDS011;19139;49.372;8.580;2022-08-19T10:32:00;8.07;;;7.33;;
32786;SDS011;19139;49.372;8.580;2022-08-19T10:34:28;7.67;;;7.00;;
32786;SDS011;19139;49.372;8.580;2022-08-19T10:36:56;7.00;;;6.40;;
32786;SDS011;19139;49.372;8.580;2022-08-19T10:39:26;7.23;;;6.63;;
32786;SDS011;19139;49.372;8.580;2022-08-19T10:41:56;7.57;;;6.97;;
32786;SDS011;19139;49.372;8.580;2022-08-19T10:44:23;7.70;;;7.00;;
32786;SDS011;19139;49.372;8.580;2022-08-19T10:46:57;7.70;;;7.03;;
32786;SDS011;19139;49.372;8.580;2022-08-19T10:49:24;7.97;;;7.23;;
32786;SDS011;19139;49.372;8.580;2022-08-19T10:51:53;7.20;;;6.60;;
32786;SDS011;19139;49.372;8.580;2022-08-19T10:54:43;7.10;;;6.50;;
32786;SDS011;19139;49.372;8.580;2022-08-19T10:57:34;7.07;;;6.47;;
32786;SDS011;19139;49.372;8.580;2022-08-19T11:00:06;7.03;;;6.43;;
32786;SDS011;19139;49.372;8.580;2022-08-19T11:02:33;7.23;;;6.53;;
32786;SDS011;19139;49.372;8.580;2022-08-19T11:05:00;7.17;;;6.67;;
32786;SDS011;19139;49.372;8.580;2022-08-19T11:07:31;9.17;;;6.97;;
32786;SDS011;19139;49.372;8.580;2022-08-19T11:10:03;7.27;;;6.67;;
32786;SDS011;19139;49.372;8.580;2022-08-19T11:12:36;6.60;;;6.10;;
32786;SDS011;19139;49.372;8.580;2022-08-19T11:15:08;8.00;;;7.30;;
32786;SDS011;19139;49.372;8.580;2022-08-19T11:17:40;7.13;;;6.53;;
32786;SDS011;19139;49.372;8.580;2022-08-19T11:20:14;6.90;;;6.30;;
32786;SDS011;19139;49.372;8.580;2022-08-19T11:22:46;6.90;;;6.30;;
32786;SDS011;19139;49.372;8.580;2022-08-19T11:25:17;7.23;;;6.63;;
32786;SDS011;19139;49.372;8.580;2022-08-19T11:27:44;6.80;;;6.20;;
32786;SDS011;19139;49.372;8.580;2022-08-19T11:30:17;6.87;;;6.23;;
32786;SDS011;19139;49.372;8.580;2022-08-19T11:32:43;7.57;;;6.37;;
32786;SDS011;19139;49.372;8.580;2022-08-19T11:35:15;7.60;;;7.00;;
32786;SDS011;19139;49.372;8.580;2022-08-19T11:37:47;7.20;;;6.60;;
32786;SDS011;19139;49.372;8.580;2022-08-19T11:40:14;7.47;;;6.97;;
32786;SDS011;19139;49.372;8.580;2022-08-19T11:42:45;7.20;;;6.50;;
32786;SDS011;19139;49.372;8.580;2022-08-19T11:45:27;7.70;;;7.10;;
32786;SDS011;19139;49.372;8.580;2022-08-19T11:47:55;7.37;;;6.80;;
32786;SDS011;19139;49.372;8.580;2022-08-19T11:50:27;7.77;;;7.17;;
32786;SDS011;19139;49.372;8.580;2022-08-19T11:52:54;8.43;;;7.73;;
32786;SDS011;19139;49.372;8.580;2022-08-19T11:55:27;7.37;;;6.77;;
32786;SDS011;19139;49.372;8.580;2022-08-19T11:57:53;8.67;;;7.97;;
32786;SDS011;19139;49.372;8.580;2022-08-19T12:00:25;8.17;;;7.37;;
32786;SDS011;19139;49.372;8.580;2022-08-19T12:02:57;7.83;;;7.23;;
32786;SDS011;19139;49.372;8.580;2022-08-19T12:05:24;8.10;;;7.50;;
32786;SDS011;19139;49.372;8.580;2022-08-19T12:07:55;7.93;;;7.30;;
32786;SDS011;19139;49.372;8.580;2022-08-19T12:10:27;9.17;;;8.30;;
32786;SDS011;19139;49.372;8.580;2022-08-19T12:12:53;8.70;;;8.07;;
32786;SDS011;19139;49.372;8.580;2022-08-19T12:15:25;8.27;;;7.57;;
32786;SDS011;19139;49.372;8.580;2022-08-19T12:18:01;9.53;;;8.73;;
32786;SDS011;19139;49.372;8.580;2022-08-19T12:20:28;9.00;;;8.30;;
32786;SDS011;19139;49.372;8.580;2022-08-19T12:22:55;8.23;;;7.63;;
32786;SDS011;19139;49.372;8.580;2022-08-19T12:25:27;9.47;;;8.70;;
32786;SDS011;19139;49.372;8.580;2022-08-19T12:27:53;9.57;;;8.87;;
32786;SDS011;19139;49.372;8.580;2022-08-19T12:30:23;9.33;;;8.63;;
32786;SDS011;19139;49.372;8.580;2022-08-19T12:32:50;9.73;;;8.80;;
32786;SDS011;19139;49.372;8.580;2022-08-19T12:35:17;9.67;;;8.80;;
32786;SDS011;19139;49.372;8.580;2022-08-19T12:37:47;9.57;;;8.77;;
32786;SDS011;19139;49.372;8.580;2022-08-19T12:40:22;8.47;;;7.77;;
32786;SDS011;19139;49.372;8.580;2022-08-19T12:42:54;9.17;;;8.47;;
32786;SDS011;19139;49.372;8.580;2022-08-19T12:45:26;9.83;;;8.93;;
32786;SDS011;19139;49.372;8.580;2022-08-19T12:47:57;9.83;;;9.03;;
32786;SDS011;19139;49.372;8.580;2022-08-19T12:50:25;8.20;;;7.53;;
32786;SDS011;19139;49.372;8.580;2022-08-19T12:52:51;9.13;;;8.33;;
32786;SDS011;19139;49.372;8.580;2022-08-19T12:55:18;8.83;;;8.13;;
32786;SDS011;19139;49.372;8.580;2022-08-19T12:57:45;9.47;;;8.80;;
32786;SDS011;19139;49.372;8.580;2022-08-19T13:00:13;8.77;;;8.07;;
32786;SDS011;19139;49.372;8.580;2022-08-19T13:02:47;8.33;;;7.67;;
32786;SDS011;19139;49.372;8.580;2022-08-19T13:05:17;9.03;;;8.43;;
32786;SDS011;19139;49.372;8.580;2022-08-19T13:07:48;9.23;;;8.43;;
32786;SDS011;19139;49.372;8.580;2022-08-19T13:10:17;8.90;;;8.20;;
32786;SDS011;19139;49.372;8.580;2022-08-19T13:12:46;9.73;;;8.90;;
32786;SDS011;19139;49.372;8.580;2022-08-19T13:15:20;8.47;;;7.77;;
32786;SDS011;19139;49.372;8.580;2022-08-19T13:17:50;8.13;;;7.50;;
32786;SDS011;19139;49.372;8.580;2022-08-19T13:20:19;8.20;;;7.60;;
32786;SDS011;19139;49.372;8.580;2022-08-19T13:22:47;8.73;;;8.03;;
32786;SDS011;19139;49.372;8.580;2022-08-19T13:25:19;8.00;;;7.20;;
32786;SDS011;19139;49.372;8.580;2022-08-19T13:27:47;8.10;;;7.40;;
32786;SDS011;19139;49.372;8.580;2022-08-19T13:30:15;7.97;;;7.40;;
32786;SDS011;19139;49.372;8.580;2022-08-19T13:33:07;7.53;;;7.03;;
32786;SDS011;19139;49.372;8.580;2022-08-19T13:35:48;7.57;;;6.97;;
32786;SDS011;19139;49.372;8.580;2022-08-19T13:38:18;7.90;;;7.30;;
32786;SDS011;19139;49.372;8.580;2022-08-19T13:40:47;8.00;;;7.40;;
32786;SDS011;19139;49.372;8.580;2022-08-19T13:43:16;7.30;;;6.70;;
32786;SDS011;19139;49.372;8.580;2022-08-19T13:45:52;7.77;;;7.07;;
32786;SDS011;19139;49.372;8.580;2022-08-19T13:48:26;7.67;;;7.07;;
32786;SDS011;19139;49.372;8.580;2022-08-19T13:50:57;7.03;;;6.53;;
32786;SDS011;19139;49.372;8.580;2022-08-19T13:53:29;7.63;;;6.93;;
32786;SDS011;19139;49.372;8.580;2022-08-19T13:55:56;7.83;;;7.13;;
32786;SDS011;19139;49.372;8.580;2022-08-19T13:58:28;7.40;;;6.80;;
32786;SDS011;19139;49.372;8.580;2022-08-19T14:00:55;6.73;;;6.23;;
32786;SDS011;19139;49.372;8.580;2022-08-19T14:03:27;7.33;;;6.83;;
32786;SDS011;19139;49.372;8.580;2022-08-19T14:05:58;6.27;;;5.87;;
32786;SDS011;19139;49.372;8.580;2022-08-19T14:08:25;6.50;;;6.00;;
32786;SDS011;19139;49.372;8.580;2022-08-19T14:10:59;6.70;;;6.20;;
32786;SDS011;19139;49.372;8.580;2022-08-19T14:13:31;6.57;;;6.07;;
32786;SDS011;19139;49.372;8.580;2022-08-19T14:16:08;7.63;;;7.03;;
32786;SDS011;19139;49.372;8.580;2022-08-19T14:18:37;7.07;;;6.53;;
32786;SDS011;19139;49.372;8.580;2022-08-19T14:21:13;6.87;;;6.20;;
32786;SDS011;19139;49.372;8.580;2022-08-19T14:23:48;6.80;;;6.30;;
32786;SDS011;19139;49.372;8.580;2022-08-19T14:26:20;7.03;;;6.53;;
32786;SDS011;19139;49.372;8.580;2022-08-19T14:28:47;6.23;;;5.73;;
32786;SDS011;19139;49.372;8.580;2022-08-19T14:31:15;6.97;;;6.37;;
32786;SDS011;19139;49.372;8.580;2022-08-19T14:33:49;6.73;;;6.20;;
32786;SDS011;19139;49.372;8.580;2022-08-19T14:36:17;6.77;;;6.27;;
32786;SDS011;19139;49.372;8.580;2022-08-19T14:38:45;6.30;;;5.90;;
32786;SDS011;19139;49.372;8.580;2022-08-19T14:41:21;6.90;;;6.30;;
32786;SDS011;19139;49.372;8.580;2022-08-19T14:43:51;6.60;;;6.10;;
32786;SDS011;19139;49.372;8.580;2022-08-19T14:46:20;6.97;;;6.37;;
32786;SDS011;19139;49.372;8.580;2022-08-19T14:48:48;6.33;;;5.73;;
32786;SDS011;19139;49.372;8.580;2022-08-19T14:51:18;6.43;;;5.70;;
32786;SDS011;19139;49.372;8.580;2022-08-19T14:53:46;7.87;;;7.17;;
32786;SDS011;19139;49.372;8.580;2022-08-19T14:56:20;7.27;;;6.67;;
32786;SDS011;19139;49.372;8.580;2022-08-19T14:58:49;6.60;;;6.10;;
32786;SDS011;19139;49.372;8.580;2022-08-19T15:01:19;7.27;;;6.67;;
32786;SDS011;19139;49.372;8.580;2022-08-19T15:03:49;7.10;;;6.50;;
32786;SDS011;19139;49.372;8.580;2022-08-19T15:06:19;7.53;;;6.93;;